Motley, Minnesota
Current Conditions -  °F | °C
As of 2:54 AM on Friday 24 Oct 2014 (Local Time) from KSAZ Reporting Station
Clear Clear  
Wind Chill: 45°   Ceiling: Unl
Heat Index: 48°   Visibility: 10mi
Dew Point: 41°   Wind: 7mph
Humidity: 76%   Direction: 170°S
Pressure: 29.87"   Gusts: NA
Location:  46.34°N, 94.65°W
Report Text: KSAZ 240754Z AUTO 17006KT 10SM CLR 09/05 A2987 RMK AO2
Loading
Personal Weather Stations






























Interactive Weather Map
Tropical Storm Tracking
New forecast layout! Learn more

10-Day Weather Forecast

Advertisements
Track Severe Weather on mobile